Terminal Aerodrome Forecast
Issued by NWS

Home | Current Version | Previous Version | Text Only | Print | Product List | Glossary On
Versions: 1 2 3 4 5 6 7 8 9 10 11 12 13 14 15 16 17 18 19 20 21 22 23 24 25 26 27
611
FTUS46 KMFR 230001 AAA
TAFOTH
TAF AMD
KOTH 230001Z 2300/2324 27006KT 5SM -SHRA BR SCT007 OVC015
      TEMPO 2300/2302 FEW030
     FM230400 17002KT 3SM BR OVC004
     FM230800 16004KT 1/2SM FG OVC003
     FM231000 15003KT 1/4SM FG OVC001
     FM231500 15003KT P6SM SCT010 SCT040
     FM232100 36012KT P6SM SKC=

USA.gov is the U.S. government's official web portal to all federal, state and local government web resources and services.